createdAt,value
2019-02-15T00:01:05.590Z,0
2019-02-15T00:03:30.720Z,0
2019-02-15T00:06:30.797Z,0
2019-02-15T00:09:31.741Z,0
2019-02-15T00:12:30.251Z,0
2019-02-15T00:15:32.043Z,0
2019-02-15T00:18:38.499Z,0
2019-02-15T00:21:35.904Z,0
2019-02-15T00:24:30.980Z,0
2019-02-15T00:27:32.511Z,0
2019-02-15T00:30:32.116Z,0
2019-02-15T00:33:33.083Z,0
2019-02-15T00:36:31.693Z,0
2019-02-15T00:39:32.744Z,0
2019-02-15T00:42:32.517Z,0
2019-02-15T00:45:34.333Z,0
2019-02-15T00:48:32.053Z,0
2019-02-15T00:52:15.221Z,0
2019-02-15T00:54:37.388Z,0
2019-02-15T00:58:48.635Z,0
2019-02-15T01:00:49.645Z,0
2019-02-15T01:04:09.169Z,0
2019-02-15T01:07:08.439Z,0
2019-02-15T01:09:37.698Z,0
2019-02-15T01:12:36.445Z,0
2019-02-15T01:15:31.139Z,0
2019-02-15T01:18:31.849Z,0
2019-02-15T01:21:32.922Z,0
2019-02-15T01:24:32.285Z,0
2019-02-15T01:28:07.671Z,0
2019-02-15T01:32:40.550Z,0
2019-02-15T01:34:40.637Z,0
2019-02-15T01:36:38.202Z,0
2019-02-15T01:40:42.291Z,0
2019-02-15T01:42:39.499Z,0
2019-02-15T01:45:43.525Z,0
2019-02-15T01:48:33.609Z,0
2019-02-15T01:51:34.414Z,0
2019-02-15T01:54:33.717Z,0
2019-02-15T01:57:31.114Z,0
2019-02-15T02:00:36.459Z,0
2019-02-15T02:03:32.592Z,0
2019-02-15T02:06:34.228Z,0
2019-02-15T02:09:30.697Z,0
2019-02-15T02:12:30.737Z,0
2019-02-15T02:15:33.230Z,0
2019-02-15T02:18:32.628Z,0
2019-02-15T02:21:31.762Z,0
2019-02-15T02:24:33.049Z,0
2019-02-15T02:27:31.995Z,0
2019-02-15T02:30:32.046Z,0
2019-02-15T02:33:32.128Z,0
2019-02-15T02:37:04.534Z,0
2019-02-15T02:39:32.147Z,0
2019-02-15T02:42:31.491Z,0
2019-02-15T02:45:32.152Z,0
2019-02-15T02:48:33.652Z,0
2019-02-15T02:51:32.523Z,0
2019-02-15T02:54:32.209Z,0
2019-02-15T02:57:32.266Z,0
2019-02-15T03:00:33.832Z,0
2019-02-15T03:03:31.352Z,0
2019-02-15T03:06:32.296Z,0
2019-02-15T03:09:31.635Z,0
2019-02-15T03:12:31.405Z,0
2019-02-15T03:15:30.054Z,0
2019-02-15T03:18:30.493Z,0
2019-02-15T03:21:34.512Z,0
2019-02-15T03:24:30.939Z,0
2019-02-15T03:27:31.777Z,0
2019-02-15T03:30:31.088Z,0
2019-02-15T03:33:30.759Z,0
2019-02-15T03:38:37.333Z,0
2019-02-15T03:39:37.212Z,0
2019-02-15T03:42:30.528Z,0
2019-02-15T03:45:31.645Z,0
2019-02-15T03:48:29.774Z,0
2019-02-15T03:51:32.155Z,0
2019-02-15T03:54:30.571Z,0
2019-02-15T03:57:32.665Z,0
2019-02-15T04:00:32.383Z,0
2019-02-15T04:03:30.645Z,0
2019-02-15T04:06:31.330Z,0
2019-02-15T04:09:30.702Z,0
2019-02-15T04:12:32.334Z,0
2019-02-15T04:15:31.139Z,0
2019-02-15T04:18:31.529Z,0
2019-02-15T04:21:31.069Z,0
2019-02-15T04:24:31.449Z,0
2019-02-15T04:27:30.796Z,0
2019-02-15T04:30:32.679Z,0
2019-02-15T04:33:31.192Z,0
2019-02-15T04:36:32.873Z,0
2019-02-15T04:39:29.640Z,0
2019-02-15T04:42:31.343Z,0
2019-02-15T04:45:31.807Z,0
2019-02-15T04:48:30.383Z,0
2019-02-15T04:51:31.485Z,0
2019-02-15T04:54:30.878Z,0
2019-02-15T04:57:30.690Z,0
2019-02-15T05:00:33.614Z,0
2019-02-15T05:03:32.498Z,0
2019-02-15T05:06:31.991Z,0
2019-02-15T05:09:31.239Z,0
2019-02-15T05:12:31.454Z,0
2019-02-15T05:15:32.483Z,0
2019-02-15T05:18:30.844Z,0
2019-02-15T05:21:32.304Z,0
2019-02-15T05:24:31.529Z,0
2019-02-15T05:27:30.869Z,0
2019-02-15T05:30:31.514Z,0
2019-02-15T05:33:30.722Z,0
2019-02-15T05:36:30.852Z,0
2019-02-15T05:39:31.904Z,0
2019-02-15T05:42:33.491Z,0
2019-02-15T05:45:31.556Z,0
2019-02-15T05:48:31.900Z,0
2019-02-15T05:51:30.261Z,0
2019-02-15T05:54:30.794Z,0
2019-02-15T05:57:30.943Z,0
2019-02-15T06:00:36.962Z,0
2019-02-15T06:03:32.157Z,0
2019-02-15T06:06:31.167Z,0
2019-02-15T06:09:31.711Z,0
2019-02-15T06:12:31.252Z,0
2019-02-15T06:15:31.696Z,0
2019-02-15T06:18:31.401Z,0
2019-02-15T06:21:30.035Z,0
2019-02-15T06:24:32.442Z,0
2019-02-15T06:27:36.212Z,0
2019-02-15T06:30:30.088Z,0
2019-02-15T06:33:56.848Z,0
2019-02-15T06:37:36.117Z,4
2019-02-15T06:40:56.100Z,0
2019-02-15T06:43:03.508Z,4
2019-02-15T06:46:21.742Z,0
2019-02-15T06:49:15.321Z,0
2019-02-15T06:52:10.834Z,0
2019-02-15T06:55:31.064Z,0
2019-02-15T06:58:18.761Z,14
2019-02-15T07:01:33.186Z,0
2019-02-15T07:04:25.885Z,2
2019-02-15T07:07:37.458Z,17
2019-02-15T07:10:10.260Z,22
2019-02-15T07:12:42.610Z,26
2019-02-15T07:15:55.340Z,34
2019-02-15T07:18:52.199Z,18
2019-02-15T07:22:04.627Z,17
2019-02-15T07:25:02.702Z,16
2019-02-15T07:28:08.708Z,20
2019-02-15T07:30:51.966Z,33
2019-02-15T07:33:53.840Z,43
2019-02-15T07:36:33.477Z,83
2019-02-15T07:39:50.627Z,97
2019-02-15T07:42:50.266Z,59
2019-02-15T07:46:35.558Z,46
2019-02-15T07:49:01.346Z,45
2019-02-15T07:51:28.333Z,48
2019-02-15T07:54:28.017Z,63
2019-02-15T07:57:28.611Z,58
2019-02-15T08:00:28.160Z,68
2019-02-15T08:03:29.234Z,82
2019-02-15T08:06:28.998Z,178
2019-02-15T08:09:28.953Z,166
2019-02-15T08:12:28.665Z,78
2019-02-15T08:15:35.838Z,89
2019-02-15T08:18:28.273Z,72
2019-02-15T08:21:28.995Z,82
2019-02-15T08:24:28.726Z,227
2019-02-15T08:27:28.463Z,177
2019-02-15T08:30:29.130Z,261
2019-02-15T08:33:28.744Z,493
2019-02-15T08:36:28.606Z,391
2019-02-15T08:39:28.393Z,252
2019-02-15T08:42:28.990Z,103
2019-02-15T08:45:28.685Z,0
2019-02-15T08:48:28.469Z,223
2019-02-15T08:51:28.350Z,438
2019-02-15T08:54:28.982Z,387
2019-02-15T08:57:28.693Z,402
2019-02-15T09:00:28.457Z,489
2019-02-15T09:03:29.254Z,272
2019-02-15T09:06:29.061Z,484
2019-02-15T09:09:28.996Z,533
2019-02-15T09:12:29.084Z,485
2019-02-15T09:15:28.865Z,323
2019-02-15T09:18:28.759Z,444
2019-02-15T09:21:28.649Z,562
2019-02-15T09:24:28.242Z,408
2019-02-15T09:27:35.438Z,474
2019-02-15T09:30:28.498Z,431
2019-02-15T09:33:28.283Z,457
2019-02-15T09:36:29.090Z,421
2019-02-15T09:39:28.884Z,354
2019-02-15T09:42:28.386Z,255
2019-02-15T09:45:29.096Z,380
2019-02-15T09:48:28.338Z,445
2019-02-15T09:51:28.868Z,132
2019-02-15T09:54:28.542Z,174
2019-02-15T09:57:28.266Z,199
2019-02-15T10:00:28.886Z,0
2019-02-15T10:03:28.537Z,228
2019-02-15T10:06:28.273Z,0
2019-02-15T10:09:28.812Z,163
2019-02-15T10:12:28.357Z,0
2019-02-15T10:15:29.020Z,153
2019-02-15T10:18:28.665Z,0
2019-02-15T10:21:28.177Z,79
2019-02-15T10:24:28.668Z,48
2019-02-15T10:27:28.234Z,358
2019-02-15T10:30:29.018Z,0
2019-02-15T10:33:28.598Z,314
2019-02-15T10:36:28.200Z,179
2019-02-15T10:39:28.972Z,0
2019-02-15T10:42:28.713Z,193
2019-02-15T10:45:28.416Z,161
2019-02-15T10:48:28.884Z,165
2019-02-15T10:51:28.632Z,158
2019-02-15T10:54:28.320Z,164
2019-02-15T10:57:29.015Z,154
2019-02-15T11:00:28.629Z,202
2019-02-15T11:03:28.343Z,204
2019-02-15T11:06:29.083Z,313
2019-02-15T11:09:28.788Z,0
2019-02-15T11:12:28.469Z,150
2019-02-15T11:15:29.219Z,5
2019-02-15T11:18:28.982Z,44
2019-02-15T11:21:28.667Z,186
2019-02-15T11:24:28.299Z,0
2019-02-15T11:27:28.911Z,0
2019-02-15T11:30:28.604Z,41
2019-02-15T11:33:28.304Z,224
2019-02-15T11:36:29.842Z,92
2019-02-15T11:39:28.754Z,0
2019-02-15T11:42:28.272Z,112
2019-02-15T11:45:28.968Z,107
2019-02-15T11:48:29.501Z,92
2019-02-15T11:51:28.281Z,102
2019-02-15T11:54:37.039Z,89
2019-02-15T11:57:28.724Z,101
2019-02-15T12:00:33.988Z,89
2019-02-15T12:03:28.501Z,100
2019-02-15T12:06:27.986Z,100
2019-02-15T12:09:29.185Z,85
2019-02-15T12:12:28.853Z,84
2019-02-15T12:15:28.498Z,95
2019-02-15T12:18:28.102Z,95
2019-02-15T12:21:28.738Z,95
2019-02-15T12:24:28.372Z,83
2019-02-15T12:27:28.893Z,83
2019-02-15T12:30:28.482Z,82
2019-02-15T12:33:28.896Z,93
2019-02-15T12:36:28.664Z,91
2019-02-15T12:39:28.186Z,91
2019-02-15T12:42:28.722Z,91
2019-02-15T12:45:28.880Z,90
2019-02-15T12:48:28.573Z,89
2019-02-15T12:51:28.161Z,78
2019-02-15T12:54:28.722Z,76
2019-02-15T12:57:28.485Z,77
2019-02-15T13:00:27.964Z,76
2019-02-15T13:03:28.673Z,76
2019-02-15T13:06:28.885Z,75
2019-02-15T13:09:28.626Z,75
2019-02-15T13:12:28.262Z,74
2019-02-15T13:15:29.026Z,74
2019-02-15T13:18:28.635Z,72
2019-02-15T13:21:28.141Z,86
2019-02-15T13:24:28.769Z,86
2019-02-15T13:27:28.566Z,74
2019-02-15T13:30:28.435Z,73
2019-02-15T13:33:28.264Z,84
2019-02-15T13:36:29.183Z,72
2019-02-15T13:39:28.855Z,83
2019-02-15T13:42:28.316Z,83
2019-02-15T13:45:29.610Z,70
2019-02-15T13:48:28.226Z,81
2019-02-15T13:51:28.865Z,69
2019-02-15T13:54:28.504Z,68
2019-02-15T13:57:28.774Z,68
2019-02-15T14:00:28.496Z,67
2019-02-15T14:03:28.225Z,66
2019-02-15T14:06:28.200Z,76
2019-02-15T14:09:28.691Z,75
2019-02-15T14:12:28.431Z,74
2019-02-15T14:15:29.039Z,60
2019-02-15T14:18:28.885Z,61
2019-02-15T14:21:28.561Z,58
2019-02-15T14:24:29.083Z,69
2019-02-15T14:27:28.755Z,56
2019-02-15T14:30:28.759Z,66
2019-02-15T14:33:28.500Z,53
2019-02-15T14:36:28.421Z,52
2019-02-15T14:39:29.141Z,62
2019-02-15T14:42:28.910Z,61
2019-02-15T14:45:28.845Z,47
2019-02-15T14:48:29.430Z,44
2019-02-15T14:51:28.605Z,44
2019-02-15T14:54:31.532Z,49
2019-02-15T14:57:29.074Z,38
2019-02-15T15:00:28.121Z,38
2019-02-15T15:03:28.909Z,47
2019-02-15T15:06:28.690Z,45
2019-02-15T15:09:28.368Z,32
2019-02-15T15:12:29.138Z,31
2019-02-15T15:15:28.839Z,29
2019-02-15T15:18:38.764Z,39
2019-02-15T15:21:28.976Z,26
2019-02-15T15:24:28.745Z,36
2019-02-15T15:27:28.555Z,23
2019-02-15T15:30:28.397Z,33
2019-02-15T15:33:29.255Z,32
2019-02-15T15:36:29.781Z,30
2019-02-15T15:39:28.537Z,29
2019-02-15T15:42:28.367Z,16
2019-02-15T15:45:29.133Z,26
2019-02-15T15:48:36.350Z,25
2019-02-15T15:51:29.226Z,23
2019-02-15T15:54:29.164Z,11
2019-02-15T15:57:28.778Z,21
2019-02-15T16:00:38.478Z,7
2019-02-15T16:03:29.410Z,6
2019-02-15T16:06:37.998Z,5
2019-02-15T16:09:29.090Z,4
2019-02-15T16:12:29.070Z,14
2019-02-15T16:15:29.013Z,0
2019-02-15T16:18:34.219Z,10
2019-02-15T16:21:29.026Z,10
2019-02-15T16:24:28.870Z,8
2019-02-15T16:27:29.373Z,0
2019-02-15T16:30:29.363Z,0
2019-02-15T16:33:29.030Z,6
2019-02-15T16:36:28.923Z,0
2019-02-15T16:39:28.668Z,0
2019-02-15T16:42:28.523Z,3
2019-02-15T16:45:28.149Z,0
2019-02-15T16:48:28.852Z,2
2019-02-15T16:51:28.531Z,1
2019-02-15T16:54:28.382Z,0
2019-02-15T16:57:35.064Z,0
2019-02-15T17:00:28.871Z,0
2019-02-15T17:03:28.723Z,0
2019-02-15T17:06:28.551Z,0
2019-02-15T17:09:28.363Z,0
2019-02-15T17:12:29.051Z,0
2019-02-15T17:15:28.699Z,0
2019-02-15T17:18:28.791Z,0
2019-02-15T17:21:28.675Z,0
2019-02-15T17:24:28.404Z,0
2019-02-15T17:27:29.830Z,0
2019-02-15T17:30:28.997Z,0
2019-02-15T17:33:28.941Z,0
2019-02-15T17:36:28.949Z,0
2019-02-15T17:39:33.642Z,0
2019-02-15T17:42:28.746Z,0
2019-02-15T17:45:28.866Z,0
2019-02-15T17:48:28.785Z,0
2019-02-15T17:51:34.027Z,0
2019-02-15T17:54:28.750Z,0
2019-02-15T17:57:28.828Z,0
2019-02-15T18:00:32.443Z,0
2019-02-15T18:03:28.426Z,0
2019-02-15T18:06:29.326Z,0
2019-02-15T18:09:29.135Z,0
2019-02-15T18:12:28.967Z,0
2019-02-15T18:15:28.742Z,0
2019-02-15T18:18:28.380Z,0
2019-02-15T18:21:29.128Z,0
2019-02-15T18:24:28.957Z,0
2019-02-15T18:27:28.846Z,0
2019-02-15T18:30:28.444Z,0
2019-02-15T18:33:28.519Z,0
2019-02-15T18:36:28.362Z,0
2019-02-15T18:39:29.109Z,0
2019-02-15T18:42:28.868Z,0
2019-02-15T18:45:28.485Z,0
2019-02-15T18:48:28.336Z,0
2019-02-15T18:51:29.229Z,0
2019-02-15T18:54:28.732Z,0
2019-02-15T18:57:28.596Z,0
2019-02-15T19:00:34.398Z,0
2019-02-15T19:03:35.430Z,0
2019-02-15T19:08:15.519Z,0
2019-02-15T19:09:43.973Z,0
2019-02-15T19:15:28.762Z,0
2019-02-15T19:18:28.531Z,0
2019-02-15T19:21:28.476Z,0
2019-02-15T19:24:28.356Z,0
2019-02-15T19:27:28.985Z,0
2019-02-15T19:30:29.038Z,0
2019-02-15T19:33:28.792Z,0
2019-02-15T19:36:28.769Z,0
2019-02-15T19:39:28.660Z,0
2019-02-15T19:42:47.540Z,0
2019-02-15T19:47:08.522Z,0
2019-02-15T19:49:38.642Z,0
2019-02-15T19:56:09.947Z,0
2019-02-15T19:56:46.550Z,0
2019-02-15T20:12:29.791Z,0
2019-02-15T20:16:11.527Z,0
2019-02-15T20:19:54.163Z,0
2019-02-15T20:28:02.984Z,0
2019-02-15T20:30:43.763Z,0
2019-02-15T20:37:09.833Z,0
2019-02-15T20:39:55.436Z,0
2019-02-15T20:43:12.527Z,0
2019-02-15T20:45:59.924Z,0
2019-02-15T20:49:05.113Z,0
2019-02-15T20:55:17.130Z,0
2019-02-15T20:58:14.494Z,0
2019-02-15T21:03:54.094Z,0
2019-02-15T21:06:30.617Z,0
2019-02-15T21:09:31.109Z,0
2019-02-15T21:12:41.731Z,0
2019-02-15T21:15:32.587Z,0
2019-02-15T21:27:28.160Z,0
2019-02-15T21:30:28.810Z,0
2019-02-15T21:33:28.376Z,0
2019-02-15T21:36:30.449Z,0
2019-02-15T21:39:29.226Z,0
2019-02-15T21:42:28.808Z,0
2019-02-15T21:45:28.383Z,0
2019-02-15T21:48:29.280Z,0
2019-02-15T21:51:29.080Z,0
2019-02-15T21:57:28.505Z,0
2019-02-15T22:00:28.981Z,0
2019-02-15T22:03:28.640Z,0
2019-02-15T22:06:28.653Z,0
2019-02-15T22:09:28.389Z,0
2019-02-15T22:12:28.970Z,0
2019-02-15T22:15:28.817Z,0
2019-02-15T22:18:28.717Z,0
2019-02-15T22:21:28.338Z,0
2019-02-15T22:24:29.051Z,0
2019-02-15T22:27:28.708Z,0
2019-02-15T22:30:30.954Z,0
2019-02-15T22:33:29.006Z,0
2019-02-15T22:41:26.001Z,0
2019-02-15T22:42:32.752Z,0
2019-02-15T22:45:32.149Z,0
2019-02-15T22:48:33.499Z,0
2019-02-15T22:51:28.881Z,0
2019-02-15T22:54:28.469Z,0
2019-02-15T22:57:28.097Z,0
2019-02-15T23:00:36.811Z,0
2019-02-15T23:03:29.180Z,0
2019-02-15T23:06:28.997Z,0
2019-02-15T23:09:29.587Z,0
2019-02-15T23:12:28.272Z,0
2019-02-15T23:15:28.915Z,0
2019-02-15T23:18:28.625Z,0
2019-02-15T23:21:28.442Z,0
2019-02-15T23:24:29.319Z,0
2019-02-15T23:27:29.318Z,0
2019-02-15T23:30:28.841Z,0
2019-02-15T23:33:28.541Z,0
2019-02-15T23:36:28.178Z,0
2019-02-15T23:39:28.888Z,0
2019-02-15T23:42:28.617Z,0
2019-02-15T23:45:28.231Z,0
2019-02-15T23:48:28.880Z,0
2019-02-15T23:51:28.644Z,0
2019-02-15T23:54:28.375Z,0
2019-02-15T23:57:29.725Z,0
